16°C Temp
13°C Dewpoint
83% Humidity
Temperature
21 KM/H
13 MPH
11 KTS
250°
West South
West

Wind Speed
Partly Cloudy
Conditions
Pressure 1014.92 (hPa) - 29.97 (in)
Visibility 6.2 (mi) - 10.0 (km)

Current Conditions
NZAA
Location 257(km)
Metar :NZAA 092100Z AUTO 25011KT 220V280 9999 FEW018/// SCT043/// 16/13 Q1015 NOSIG
Sat 9th October 21:00 pm

Airport
  Metar Aviation API Data Provided by https://www.checkwx.com/ PHP scripts by weather34.com ©2021